Terminal Aerodrome Forecast
Issued by NWS Spokane, WA

Home | Current Version | Previous Version | Text Only | Print | Product List | Glossary On
Versions: 1 2 3 4 5 6 7 8 9 10 11 12 13 14 15 16 17 18 19 20 21 22 23 24 25 26
783
FTUS46 KOTX 291450 AAA
TAFLWS
TAF AMD
KLWS 291450Z 2915/3012 00000KT P6SM -RA BKN011 OVC045
     FM291900 31004KT P6SM -RA BKN025 OVC045
     FM292030 28006KT P6SM -RA OVC050
     FM300000 21005KT P6SM BKN060 OVC090=

USA.gov is the U.S. government's official web portal to all federal, state and local government web resources and services.